LFOT

Tours-Val-de-Loire Airport

Airport
ICAO code
LFOT
IATA Code
TUF
Summary
ICAO Region
EUR
ICAO Territory
Location

, Centre

Serving
Tours
Elevation
357 ft
Coordinates
47° 25' 56" N , 0° 43' 39" E
Metar
Observation
LFOT 280530Z AUTO 27007KT 9999 OVC005 09/09 Q1013 BECMG SCT005 BKN030
Station
Tours
Date/Time
2022-11-28 05:30:00
Wind direction
270°
Wind speed
07 kts
Lowest cloud amount
overcast
Temperature
9°C
Dew point
9°C
Humidity
100%
QNH
1013 hPa
Weather condition
n/a

Runways

Designator Length Width Surface Rops
2/20 2404 45 CON Yes/Yes

Airport map

Aerial View

SKYbrary Partners:

Safety knowledge contributed by: